createdAt,value
2023-10-24T00:04:43.409Z,100188.34
2023-10-24T00:09:47.251Z,100176.91
2023-10-24T00:14:50.965Z,100176.28
2023-10-24T00:19:56.119Z,100169.19
2023-10-24T00:24:59.855Z,100171.72
2023-10-24T00:30:04.007Z,100169.13
2023-10-24T00:35:10.321Z,100168.28
2023-10-24T00:40:14.442Z,100167.25
2023-10-24T00:45:18.304Z,100170.66
2023-10-24T00:50:23.657Z,100170.72
2023-10-24T00:55:27.794Z,100174.91
2023-10-24T01:00:33.182Z,100176.37
2023-10-24T01:05:38.682Z,100176.72
2023-10-24T01:10:42.499Z,100168.56
2023-10-24T01:15:46.264Z,100168.56
2023-10-24T01:20:51.426Z,100166.84
2023-10-24T01:25:59.118Z,100159.97
2023-10-24T01:31:02.925Z,100163.41
2023-10-24T01:36:06.899Z,100157.75
2023-10-24T01:41:11.973Z,100165.59
2023-10-24T01:46:15.839Z,100170.19
2023-10-24T01:51:20.954Z,100156.22
2023-10-24T01:56:26.068Z,100158.78
2023-10-24T02:01:29.910Z,100153.63
2023-10-24T02:06:33.981Z,100150.91
2023-10-24T02:11:39.039Z,100143.78
2023-10-24T02:16:43.223Z,100147.06
2023-10-24T02:21:47.072Z,100133.22
2023-10-24T02:26:52.139Z,100144.06
2023-10-24T02:31:55.934Z,100136.47
2023-10-24T02:36:59.712Z,100134.59
2023-10-24T02:42:05.320Z,100141.38
2023-10-24T02:47:10.037Z,100148.25
2023-10-24T02:52:14.065Z,100147.09
2023-10-24T02:57:20.720Z,100154.16
2023-10-24T03:02:24.516Z,100158.53
2023-10-24T03:07:28.263Z,100159.97
2023-10-24T03:12:33.551Z,100159.25
2023-10-24T03:17:38.455Z,100165.06
2023-10-24T03:22:42.995Z,100162.72
2023-10-24T03:27:48.096Z,100165.22
2023-10-24T03:32:52.469Z,100167.69
2023-10-24T03:37:56.184Z,100170.41
2023-10-24T03:43:01.236Z,100160.06
2023-10-24T03:48:05.449Z,100167.69
2023-10-24T03:53:09.537Z,100164.41
2023-10-24T03:58:14.605Z,100158.87
2023-10-24T04:03:21.137Z,100172.37
2023-10-24T04:08:26.644Z,100175.22
2023-10-24T04:13:31.897Z,100167.69
2023-10-24T04:18:35.686Z,100174.66
2023-10-24T04:23:39.697Z,100157.19
2023-10-24T04:28:44.770Z,100145.97
2023-10-24T04:33:48.505Z,100145.09
2023-10-24T04:38:52.236Z,100141.50
2023-10-24T04:43:57.329Z,100133.16
2023-10-24T04:49:01.092Z,100126.25
2023-10-24T04:54:05.078Z,100117.56
2023-10-24T04:59:10.146Z,100115.63
2023-10-24T05:04:13.880Z,100108.66
2023-10-24T05:09:18.297Z,100121.66
2023-10-24T05:14:23.554Z,100130.22
2023-10-24T05:19:27.732Z,100137.19
2023-10-24T05:24:31.562Z,100135.47
2023-10-24T05:29:36.967Z,100119.16
2023-10-24T05:34:40.912Z,100123.31
2023-10-24T05:39:44.860Z,100117.50
2023-10-24T05:44:50.081Z,100114.91
2023-10-24T05:49:53.823Z,100121.44
2023-10-24T05:54:57.595Z,100118.16
2023-10-24T06:00:02.721Z,100117.19
2023-10-24T06:05:11.469Z,100131.94
2023-10-24T06:10:16.459Z,100141.03
2023-10-24T06:15:21.782Z,100139.44
2023-10-24T06:20:25.530Z,100154.97
2023-10-24T06:25:29.305Z,100161.94
2023-10-24T06:30:34.684Z,100149.88
2023-10-24T06:35:38.425Z,100136.16
2023-10-24T06:40:46.627Z,100151.69
2023-10-24T06:45:51.633Z,100149.16
2023-10-24T06:50:55.340Z,100153.97
2023-10-24T06:56:02.297Z,100167.22
2023-10-24T07:01:08.112Z,100169.88
2023-10-24T07:06:12.817Z,100168.22
2023-10-24T07:11:16.790Z,100161.53
2023-10-24T07:16:21.838Z,100154.75
2023-10-24T07:21:25.625Z,100167.69
2023-10-24T07:26:29.453Z,100164.22
2023-10-24T07:31:34.657Z,100149.91
2023-10-24T07:36:38.458Z,100129.22
2023-10-24T07:41:42.307Z,100124.38
2023-10-24T07:46:47.650Z,100120.03
2023-10-24T07:51:51.435Z,100116.56
2023-10-24T07:56:57.930Z,100119.84
2023-10-24T08:02:04.537Z,100114.91
2023-10-24T08:07:08.524Z,100124.53
2023-10-24T08:12:12.928Z,100127.00
2023-10-24T08:17:18.133Z,100125.31
2023-10-24T08:22:21.995Z,100128.56
2023-10-24T08:27:25.770Z,100129.19
2023-10-24T08:32:30.898Z,100130.91
2023-10-24T08:37:35.636Z,100139.97
2023-10-24T08:42:39.466Z,100147.41
2023-10-24T08:47:47.230Z,100152.78
2023-10-24T08:52:51.147Z,100159.19
2023-10-24T08:57:56.507Z,100159.44
2023-10-24T09:03:02.532Z,100163.13
2023-10-24T09:08:07.120Z,100152.00
2023-10-24T09:13:10.922Z,100144.91
2023-10-24T09:18:18.220Z,100139.34
2023-10-24T09:23:24.056Z,100135.72
2023-10-24T09:28:30.408Z,100125.56
2023-10-24T09:33:36.325Z,100132.53
2023-10-24T09:38:43.236Z,100139.47
2023-10-24T09:43:49.906Z,100125.28
2023-10-24T09:48:57.491Z,100119.28
2023-10-24T09:54:01.788Z,100119.81
2023-10-24T09:59:07.267Z,100116.75
2023-10-24T10:04:15.232Z,100122.84
2023-10-24T10:09:22.528Z,100112.88
2023-10-24T10:14:35.431Z,100106.72
2023-10-24T10:20:07.884Z,100110.19
2023-10-24T10:25:37.409Z,100129.16
2023-10-24T10:30:54.258Z,100133.41
2023-10-24T10:36:15.286Z,100145.44
2023-10-24T10:41:46.103Z,100155.78
2023-10-24T10:47:00.919Z,100161.66
2023-10-24T10:52:10.135Z,100174.53
2023-10-24T10:57:25.141Z,100169.19
2023-10-24T11:02:47.292Z,100173.47
2023-10-24T11:07:55.502Z,100149.88
2023-10-24T11:12:59.420Z,100161.31
2023-10-24T11:18:06.701Z,100167.88
2023-10-24T11:23:13.161Z,100162.41
2023-10-24T11:28:17.757Z,100159.63
2023-10-24T11:33:21.519Z,100146.81
2023-10-24T11:38:26.695Z,100127.03
2023-10-24T11:43:31.096Z,100112.78
2023-10-24T11:48:34.942Z,100105.06
2023-10-24T11:53:40.198Z,100111.13
2023-10-24T11:58:44.698Z,100111.22
2023-10-24T12:03:49.741Z,100107.22
2023-10-24T12:08:55.365Z,100108.47
2023-10-24T12:13:59.247Z,100103.38
2023-10-24T12:19:03.673Z,100105.94
2023-10-24T12:24:09.259Z,100098.53
2023-10-24T12:29:13.029Z,100096.97
2023-10-24T12:34:16.913Z,100097.97
2023-10-24T12:39:22.627Z,100104.09
2023-10-24T12:44:26.624Z,100109.22
2023-10-24T12:49:30.411Z,100099.53
2023-10-24T12:54:35.527Z,100037.53
2023-10-24T12:59:39.315Z,100034.63
2023-10-24T13:04:45.348Z,100017.19
2023-10-24T13:09:50.535Z,100018.50
2023-10-24T13:14:54.276Z,100019.34
2023-10-24T13:19:58.503Z,100025.69
2023-10-24T13:25:03.632Z,100024.63
2023-10-24T13:30:09.571Z,100032.97
2023-10-24T13:36:09.709Z,100037.69
2023-10-24T13:40:38.681Z,100026.38
2023-10-24T13:45:42.484Z,100014.03
2023-10-24T13:50:46.253Z,100020.31
2023-10-24T13:55:51.417Z,100023.09
2023-10-24T14:00:55.166Z,100026.13
2023-10-24T14:05:59.234Z,100022.47
2023-10-24T14:11:04.563Z,100016.37
2023-10-24T14:16:09.512Z,100022.47
2023-10-24T14:21:13.502Z,100020.47
2023-10-24T14:26:18.697Z,100016.31
2023-10-24T14:31:22.650Z,100018.91
2023-10-24T14:36:26.561Z,100015.03
2023-10-24T14:41:32.042Z,100009.66
2023-10-24T14:46:36.055Z,100014.56
2023-10-24T14:51:39.876Z,100008.06
2023-10-24T14:56:45.008Z,100017.16
2023-10-24T15:01:48.765Z,100012.00
2023-10-24T15:06:52.512Z,100018.91
2023-10-24T15:11:57.799Z,100020.69
2023-10-24T15:17:02.380Z,100021.53
2023-10-24T15:22:06.324Z,100024.03
2023-10-24T15:27:11.444Z,100025.28
2023-10-24T15:32:18.130Z,100015.56
2023-10-24T15:37:22.712Z,100007.63
2023-10-24T15:42:27.847Z,100011.84
2023-10-24T15:47:31.601Z,100018.53
2023-10-24T15:52:35.372Z,100017.44
2023-10-24T15:57:40.479Z,100014.66
2023-10-24T16:02:44.301Z,100027.37
2023-10-24T16:07:48.176Z,100031.41
2023-10-24T16:12:53.301Z,100031.22
2023-10-24T16:17:57.149Z,100031.91
2023-10-24T16:23:00.920Z,100036.91
2023-10-24T16:28:06.110Z,100036.69
2023-10-24T16:33:09.942Z,100045.03
2023-10-24T16:38:13.979Z,100047.37
2023-10-24T16:43:19.126Z,100055.69
2023-10-24T16:48:23.238Z,100067.69
2023-10-24T16:53:28.184Z,100065.78
2023-10-24T16:58:34.585Z,100061.16
2023-10-24T17:03:38.544Z,100069.28
2023-10-24T17:08:42.447Z,100073.56
2023-10-24T17:13:47.577Z,100069.03
2023-10-24T17:18:51.336Z,100077.34
2023-10-24T17:23:55.365Z,100082.88
2023-10-24T17:29:02.006Z,100078.66
2023-10-24T17:34:09.204Z,100074.97
2023-10-24T17:39:12.959Z,100079.12
2023-10-24T17:44:18.083Z,100091.97
2023-10-24T17:49:21.917Z,100086.59
2023-10-24T17:54:25.889Z,100088.09
2023-10-24T17:59:33.773Z,100099.69
2023-10-24T18:04:37.538Z,100105.69
2023-10-24T18:09:41.485Z,100107.16
2023-10-24T18:14:46.665Z,100109.59
2023-10-24T18:19:50.573Z,100112.88
2023-10-24T18:24:55.992Z,100107.34
2023-10-24T18:30:01.395Z,100106.69
2023-10-24T18:35:05.591Z,100106.38
2023-10-24T18:40:10.766Z,100104.56
2023-10-24T18:45:15.907Z,100104.28
2023-10-24T18:50:22.690Z,100112.72
2023-10-24T18:55:29.535Z,100117.63
2023-10-24T19:00:36.234Z,100111.56
2023-10-24T19:05:40.797Z,100108.19
2023-10-24T19:10:44.933Z,100110.72
2023-10-24T19:15:50.694Z,100116.69
2023-10-24T19:20:55.173Z,100117.63
2023-10-24T19:25:59.431Z,100115.69
2023-10-24T19:31:05.312Z,100118.41
2023-10-24T19:36:14.187Z,100114.69
2023-10-24T19:41:18.506Z,100128.34
2023-10-24T19:46:25.951Z,100135.66
2023-10-24T19:51:34.270Z,100128.50
2023-10-24T19:56:38.359Z,100130.44
2023-10-24T20:01:43.934Z,100128.41
2023-10-24T20:06:52.429Z,100145.59
2023-10-24T20:12:37.957Z,100141.19
2023-10-24T20:17:23.177Z,100136.91
2023-10-24T20:22:27.510Z,100137.50
2023-10-24T20:27:34.604Z,100145.94
2023-10-24T20:32:40.045Z,100143.47
2023-10-24T20:37:43.815Z,100141.50
2023-10-24T20:42:48.963Z,100138.91
2023-10-24T20:47:54.106Z,100136.28
2023-10-24T20:52:57.881Z,100135.19
2023-10-24T20:58:02.690Z,100141.00
2023-10-24T21:03:07.837Z,100149.34
2023-10-24T21:08:12.349Z,100150.06
2023-10-24T21:13:16.164Z,100149.97
2023-10-24T21:18:21.221Z,100159.13
2023-10-24T21:23:25.050Z,100154.78
2023-10-24T21:28:28.850Z,100151.28
2023-10-24T21:33:34.046Z,100140.69
2023-10-24T21:38:38.111Z,100141.19
2023-10-24T21:43:41.925Z,100143.03
2023-10-24T21:48:47.067Z,100138.28
2023-10-24T21:53:52.062Z,100138.06
2023-10-24T21:58:56.240Z,100138.81
2023-10-24T22:04:01.442Z,100135.34
2023-10-24T22:09:05.547Z,100134.28
2023-10-24T22:14:09.267Z,100118.59
2023-10-24T22:19:16.349Z,100126.19
2023-10-24T22:24:20.053Z,100116.72
2023-10-24T22:29:23.789Z,100131.28
2023-10-24T22:34:28.860Z,100131.78
2023-10-24T22:39:32.638Z,100124.87
2023-10-24T22:44:36.375Z,100113.66
2023-10-24T22:49:41.834Z,100107.59
2023-10-24T22:54:45.776Z,100118.59
2023-10-24T22:59:49.567Z,100117.75
2023-10-24T23:04:54.656Z,100113.50
2023-10-24T23:09:59.302Z,100114.22
2023-10-24T23:15:04.103Z,100119.25
2023-10-24T23:20:10.810Z,100112.22
2023-10-24T23:25:14.590Z,100120.62
2023-10-24T23:30:18.374Z,100124.16
2023-10-24T23:35:23.550Z,100117.03
2023-10-24T23:40:27.290Z,100108.44
2023-10-24T23:45:31.043Z,100114.44
2023-10-24T23:50:36.097Z,100113.41
2023-10-24T23:55:39.897Z,100114.00
